Terminal Aerodrome Forecast
Issued by NWS

Home | Current Version | Previous Version | Text Only | Print | Product List | Glossary On
Versions: 1 2 3 4 5 6 7 8 9 10 11 12 13 14 15 16 17
000
FTUS41 KBTV 231731
TAFPBG
TAF
KPBG 231731Z 2318/2418 31009G16KT P6SM SKC
     FM240000 VRB03KT P6SM SKC
     FM240700 15005KT P6SM BKN070 OVC150
     FM241100 17007KT P6SM VCSH OVC050
     FM241400 17012G19KT 1 1/2SM -SN BR OVC015
     FM241600 17013G21KT 2SM -RASN BR OVC012=

USA.gov is the U.S. government's official web portal to all federal, state and local government web resources and services.